createdAt,value
2022-09-28T00:02:21.806Z,0.20
2022-09-28T00:04:48.267Z,0.10
2022-09-28T00:07:14.648Z,0.20
2022-09-28T00:09:41.031Z,0.15
2022-09-28T00:12:07.371Z,0.20
2022-09-28T00:14:33.997Z,0.20
2022-09-28T00:17:00.411Z,0.15
2022-09-28T00:19:26.912Z,0.30
2022-09-28T00:21:53.260Z,0.10
2022-09-28T00:24:24.034Z,0.17
2022-09-28T00:26:55.482Z,0.00
2022-09-28T00:29:29.290Z,0.10
2022-09-28T00:32:00.487Z,0.10
2022-09-28T00:34:27.731Z,0.63
2022-09-28T00:36:54.222Z,0.30
2022-09-28T00:39:21.405Z,0.05
2022-09-28T00:41:49.265Z,0.47
2022-09-28T00:44:30.934Z,0.10
2022-09-28T00:47:18.193Z,0.20
2022-09-28T00:50:03.143Z,0.30
2022-09-28T00:55:09.888Z,0.30
2022-09-28T00:57:39.557Z,0.20
2022-09-28T01:00:07.286Z,0.30
2022-09-28T01:02:33.979Z,0.55
2022-09-28T01:05:01.453Z,0.40
2022-09-28T01:07:28.015Z,0.40
2022-09-28T01:09:54.826Z,0.20
2022-09-28T01:12:21.235Z,0.30
2022-09-28T01:14:48.491Z,0.28
2022-09-28T01:17:16.321Z,0.35
2022-09-28T01:20:08.344Z,0.55
2022-09-28T01:22:34.653Z,0.30
2022-09-28T01:25:31.725Z,0.17
2022-09-28T01:28:04.798Z,0.28
2022-09-28T01:30:41.549Z,0.25
2022-09-28T01:33:16.090Z,0.35
2022-09-28T01:35:57.038Z,0.20
2022-09-28T01:38:48.554Z,0.40
2022-09-28T01:41:17.801Z,0.38
2022-09-28T01:43:50.404Z,0.30
2022-09-28T01:46:21.799Z,0.28
2022-09-28T01:48:53.351Z,0.20
2022-09-28T01:51:31.986Z,0.30
2022-09-28T01:54:07.346Z,0.20
2022-09-28T01:56:43.105Z,0.30
2022-09-28T01:59:20.412Z,0.20
2022-09-28T02:01:49.948Z,0.10
2022-09-28T02:04:45.149Z,0.32
2022-09-28T02:07:17.557Z,0.30
2022-09-28T02:09:58.423Z,0.25
2022-09-28T02:12:36.298Z,0.22
2022-09-28T02:15:14.306Z,0.20
2022-09-28T02:17:41.614Z,0.20
2022-09-28T02:20:09.221Z,0.30
2022-09-28T02:22:53.466Z,0.32
2022-09-28T02:25:40.785Z,0.50
2022-09-28T02:28:11.242Z,0.30
2022-09-28T02:30:39.878Z,0.30
2022-09-28T02:33:13.269Z,0.10
2022-09-28T02:35:41.016Z,0.20
2022-09-28T02:38:07.512Z,0.30
2022-09-28T02:40:36.155Z,0.20
2022-09-28T02:43:15.206Z,0.40
2022-09-28T02:46:02.078Z,0.20
2022-09-28T02:48:55.837Z,0.30
2022-09-28T02:51:59.347Z,0.30
2022-09-28T02:54:51.746Z,0.30
2022-09-28T02:57:39.493Z,0.30
2022-09-28T03:00:12.139Z,0.13
2022-09-28T03:02:45.276Z,0.30
2022-09-28T03:05:34.703Z,0.43
2022-09-28T03:08:16.033Z,0.30
2022-09-28T03:11:32.253Z,0.75
2022-09-28T03:13:59.560Z,0.30
2022-09-28T03:16:27.422Z,0.40
2022-09-28T03:18:53.912Z,0.85
2022-09-28T03:21:20.286Z,0.30
2022-09-28T03:23:47.815Z,0.40
2022-09-28T03:26:15.069Z,0.30
2022-09-28T03:28:41.471Z,0.40
2022-09-28T03:31:07.946Z,0.20
2022-09-28T03:33:34.546Z,0.28
2022-09-28T03:36:01.275Z,0.40
2022-09-28T03:38:27.648Z,0.47
2022-09-28T03:40:59.006Z,0.38
2022-09-28T03:43:27.049Z,0.32
2022-09-28T03:45:59.148Z,0.43
2022-09-28T03:48:32.660Z,0.50
2022-09-28T03:51:02.194Z,0.60
2022-09-28T03:53:29.797Z,0.35
2022-09-28T03:56:01.784Z,0.50
2022-09-28T03:58:28.530Z,0.40
2022-09-28T04:00:54.974Z,0.80
2022-09-28T04:03:21.377Z,0.40
2022-09-28T04:05:52.522Z,0.30
2022-09-28T04:08:19.566Z,0.30
2022-09-28T04:10:46.584Z,0.40
2022-09-28T04:13:13.357Z,0.50
2022-09-28T04:15:39.723Z,0.30
2022-09-28T04:18:13.484Z,0.50
2022-09-28T04:20:45.379Z,0.40
2022-09-28T04:23:12.330Z,0.40
2022-09-28T04:25:39.730Z,0.30
2022-09-28T04:28:24.704Z,0.28
2022-09-28T04:33:17.472Z,0.20
2022-09-28T04:35:43.871Z,0.30
2022-09-28T04:38:10.233Z,0.38
2022-09-28T04:40:36.845Z,0.30
2022-09-28T04:43:03.372Z,0.30
2022-09-28T04:45:29.886Z,0.50
2022-09-28T04:47:56.286Z,0.40
2022-09-28T04:50:22.807Z,0.40
2022-09-28T04:52:49.210Z,0.50
2022-09-28T04:55:16.861Z,0.45
2022-09-28T04:57:43.440Z,0.60
2022-09-28T05:00:11.974Z,0.70
2022-09-28T05:02:38.998Z,0.60
2022-09-28T05:05:05.977Z,0.70
2022-09-28T05:07:32.440Z,0.60
2022-09-28T05:09:58.857Z,1.50
2022-09-28T05:12:25.247Z,0.80
2022-09-28T05:14:51.609Z,0.80
2022-09-28T05:17:18.074Z,1.13
2022-09-28T05:19:44.438Z,0.88
2022-09-28T05:22:14.721Z,1.20
2022-09-28T05:24:41.648Z,1.10
2022-09-28T05:27:08.332Z,0.93
2022-09-28T05:29:34.835Z,1.55
2022-09-28T05:32:01.575Z,0.93
2022-09-28T05:34:28.218Z,1.20
2022-09-28T05:36:54.613Z,1.10
2022-09-28T05:39:21.059Z,1.02
2022-09-28T05:41:47.467Z,0.98
2022-09-28T05:44:14.013Z,1.08
2022-09-28T05:46:40.517Z,1.05
2022-09-28T05:49:06.899Z,1.55
2022-09-28T05:51:33.336Z,1.00
2022-09-28T05:54:04.639Z,1.17
2022-09-28T05:56:32.590Z,1.23
2022-09-28T05:58:59.054Z,1.02
2022-09-28T06:01:25.650Z,1.10
2022-09-28T06:03:52.113Z,1.00
2022-09-28T06:06:18.532Z,1.15
2022-09-28T06:08:46.379Z,1.02
2022-09-28T06:11:12.833Z,0.80
2022-09-28T06:13:41.796Z,1.00
2022-09-28T06:16:08.641Z,1.00
2022-09-28T06:18:35.404Z,1.10
2022-09-28T06:21:02.607Z,1.70
2022-09-28T06:23:28.942Z,1.95
2022-09-28T06:25:55.381Z,1.90
2022-09-28T06:28:21.782Z,1.67
2022-09-28T06:30:48.256Z,1.48
2022-09-28T06:33:15.204Z,2.00
2022-09-28T06:35:42.338Z,2.78
2022-09-28T06:38:08.963Z,1.60
2022-09-28T06:40:36.225Z,1.65
2022-09-28T06:43:06.593Z,1.63
2022-09-28T06:45:32.937Z,1.30
2022-09-28T06:48:01.033Z,1.67
2022-09-28T06:50:32.186Z,1.40
2022-09-28T06:52:59.734Z,1.20
2022-09-28T06:55:27.095Z,1.08
2022-09-28T06:58:03.868Z,0.88
2022-09-28T07:00:33.897Z,0.85
2022-09-28T07:03:02.778Z,1.20
2022-09-28T07:05:29.966Z,1.10
2022-09-28T07:07:57.258Z,1.00
2022-09-28T07:10:25.596Z,0.70
2022-09-28T07:12:52.330Z,1.42
2022-09-28T07:15:19.444Z,1.40
2022-09-28T07:17:59.223Z,1.50
2022-09-28T07:20:29.196Z,1.67
2022-09-28T07:22:57.803Z,1.30
2022-09-28T07:25:29.669Z,1.63
2022-09-28T07:27:59.996Z,1.00
2022-09-28T07:30:28.259Z,1.05
2022-09-28T07:32:55.327Z,1.17
2022-09-28T07:35:22.913Z,1.13
2022-09-28T07:37:49.376Z,1.70
2022-09-28T07:40:34.891Z,4.60
2022-09-28T07:43:07.457Z,0.90
2022-09-28T07:45:38.143Z,0.70
2022-09-28T07:48:04.824Z,1.10
2022-09-28T07:50:31.465Z,0.22
2022-09-28T07:52:58.450Z,0.30
2022-09-28T07:55:24.994Z,0.15
2022-09-28T07:57:56.151Z,0.25
2022-09-28T08:00:22.780Z,0.50
2022-09-28T08:02:49.259Z,4.47
2022-09-28T08:05:15.787Z,2.80
2022-09-28T08:07:43.383Z,0.22
2022-09-28T08:10:10.345Z,0.20
2022-09-28T08:12:40.101Z,0.65
2022-09-28T08:15:10.344Z,0.30
2022-09-28T08:17:37.455Z,0.43
2022-09-28T08:20:22.874Z,0.30
2022-09-28T08:22:49.334Z,0.20
2022-09-28T08:25:15.872Z,1.00
2022-09-28T08:27:42.306Z,0.50
2022-09-28T08:30:09.276Z,1.67
2022-09-28T08:32:35.760Z,1.42
2022-09-28T08:35:02.212Z,0.60
2022-09-28T08:37:28.793Z,0.70
2022-09-28T08:39:55.162Z,0.98
2022-09-28T08:42:21.963Z,1.20
2022-09-28T08:44:57.783Z,2.03
2022-09-28T08:48:07.938Z,2.67
2022-09-28T08:50:40.972Z,8.70
2022-09-28T08:53:39.656Z,0.40
2022-09-28T08:56:11.536Z,0.85
2022-09-28T08:58:43.069Z,1.02
2022-09-28T09:01:16.345Z,0.20
2022-09-28T09:03:45.279Z,0.22
2022-09-28T09:06:26.835Z,0.20
2022-09-28T09:09:11.810Z,0.10
2022-09-28T09:11:48.724Z,0.10
2022-09-28T09:14:21.089Z,0.20
2022-09-28T09:17:00.342Z,0.57
2022-09-28T09:19:46.066Z,0.73
2022-09-28T09:22:16.743Z,0.10
2022-09-28T09:24:51.183Z,0.30
2022-09-28T09:30:11.862Z,0.13
2022-09-28T09:32:41.730Z,0.47
2022-09-28T09:35:42.277Z,0.55
2022-09-28T09:38:47.715Z,0.35
2022-09-28T09:41:49.622Z,0.20
2022-09-28T09:44:36.254Z,0.65
2022-09-28T09:47:17.006Z,1.02
2022-09-28T09:49:45.217Z,0.50
2022-09-28T09:52:20.506Z,0.73
2022-09-28T09:54:55.562Z,0.40
2022-09-28T09:57:30.045Z,0.60
2022-09-28T10:02:29.507Z,0.20
2022-09-28T10:05:02.151Z,0.17
2022-09-28T10:07:43.262Z,0.10
2022-09-28T10:10:20.530Z,0.10
2022-09-28T10:12:49.823Z,0.20
2022-09-28T10:15:28.692Z,0.10
2022-09-28T10:17:56.932Z,0.20
2022-09-28T10:20:25.491Z,0.30
2022-09-28T10:22:52.310Z,0.17
2022-09-28T10:25:19.868Z,0.10
2022-09-28T10:27:49.552Z,0.10
2022-09-28T10:30:23.240Z,0.10
2022-09-28T10:32:52.499Z,0.00
2022-09-28T10:35:19.206Z,0.20
2022-09-28T10:37:48.515Z,0.30
2022-09-28T10:40:32.441Z,0.30
2022-09-28T10:43:28.694Z,0.13
2022-09-28T10:46:20.327Z,0.10
2022-09-28T10:48:49.587Z,0.17
2022-09-28T10:51:16.297Z,0.20
2022-09-28T10:54:01.749Z,0.20
2022-09-28T10:56:35.059Z,0.10
2022-09-28T10:59:01.567Z,0.20
2022-09-28T11:01:33.664Z,0.10
2022-09-28T11:04:04.436Z,0.20
2022-09-28T11:06:40.133Z,0.20
2022-09-28T11:09:28.462Z,0.20
2022-09-28T11:12:04.942Z,0.47
2022-09-28T11:14:41.909Z,0.10
2022-09-28T11:17:24.299Z,0.25
2022-09-28T11:19:50.828Z,0.10
2022-09-28T11:22:22.450Z,0.30
2022-09-28T11:24:49.644Z,0.03
2022-09-28T11:27:25.263Z,0.08
2022-09-28T11:29:59.148Z,0.40
2022-09-28T11:32:30.368Z,0.17
2022-09-28T11:35:00.371Z,0.20
2022-09-28T11:37:47.621Z,0.00
2022-09-28T11:40:29.382Z,0.15
2022-09-28T11:43:15.766Z,0.05
2022-09-28T11:46:03.553Z,0.15
2022-09-28T11:48:42.245Z,0.10
2022-09-28T11:51:18.611Z,0.20
2022-09-28T11:53:55.058Z,0.10
2022-09-28T11:56:38.155Z,0.13
2022-09-28T11:59:28.718Z,0.10
2022-09-28T12:01:58.079Z,0.00
2022-09-28T12:04:39.075Z,0.00
2022-09-28T12:07:17.527Z,0.00
2022-09-28T12:09:53.326Z,0.20
2022-09-28T12:13:10.106Z,0.13
2022-09-28T12:16:23.336Z,0.10
2022-09-28T12:18:54.932Z,0.20
2022-09-28T12:21:38.000Z,0.10
2022-09-28T12:24:23.441Z,0.10
2022-09-28T12:27:03.244Z,0.00
2022-09-28T12:29:48.054Z,0.10
2022-09-28T12:32:42.827Z,0.03
2022-09-28T12:35:38.587Z,0.30
2022-09-28T12:38:08.706Z,0.20
2022-09-28T12:40:38.173Z,0.32
2022-09-28T12:43:22.702Z,0.10
2022-09-28T12:46:16.902Z,0.03
2022-09-28T12:52:02.399Z,0.10
2022-09-28T12:54:46.686Z,0.25
2022-09-28T12:57:50.102Z,0.10
2022-09-28T13:00:22.615Z,0.00
2022-09-28T13:03:13.678Z,0.10
2022-09-28T13:06:13.470Z,0.20
2022-09-28T13:08:48.868Z,0.10
2022-09-28T13:11:33.131Z,0.10
2022-09-28T13:14:34.447Z,0.28
2022-09-28T13:17:14.412Z,0.15
2022-09-28T13:19:59.234Z,0.03
2022-09-28T13:22:55.036Z,0.17
2022-09-28T13:25:25.422Z,0.10
2022-09-28T13:27:58.089Z,0.03
2022-09-28T13:30:25.623Z,0.10
2022-09-28T13:32:56.191Z,0.20
2022-09-28T13:35:22.793Z,0.10
2022-09-28T13:38:18.118Z,0.10
2022-09-28T13:41:09.776Z,0.10
2022-09-28T13:43:45.282Z,0.03
2022-09-28T13:46:24.487Z,0.20
2022-09-28T13:49:18.371Z,0.10
2022-09-28T13:51:58.134Z,0.10
2022-09-28T13:54:41.963Z,0.10
2022-09-28T13:57:27.175Z,0.10
2022-09-28T13:59:53.519Z,0.40
2022-09-28T14:02:51.930Z,0.10
2022-09-28T14:05:21.271Z,0.10
2022-09-28T14:08:09.537Z,0.20
2022-09-28T14:10:51.980Z,0.10
2022-09-28T14:13:43.478Z,0.20
2022-09-28T14:16:18.891Z,0.30
2022-09-28T14:19:08.398Z,0.10
2022-09-28T14:21:50.036Z,0.10
2022-09-28T14:24:55.507Z,0.30
2022-09-28T14:27:44.594Z,0.20
2022-09-28T14:30:10.910Z,0.10
2022-09-28T14:32:38.837Z,0.10
2022-09-28T14:35:18.620Z,0.20
2022-09-28T14:38:07.465Z,0.00
2022-09-28T14:41:10.938Z,0.13
2022-09-28T14:43:58.536Z,0.10
2022-09-28T14:46:24.932Z,0.10
2022-09-28T14:49:13.628Z,0.20
2022-09-28T14:51:39.954Z,0.20
2022-09-28T14:54:12.260Z,0.00
2022-09-28T14:56:40.460Z,0.00
2022-09-28T14:59:17.756Z,0.10
2022-09-28T15:01:53.863Z,0.00
2022-09-28T15:04:21.145Z,0.05
2022-09-28T15:06:50.518Z,0.10
2022-09-28T15:09:32.407Z,0.22
2022-09-28T15:12:03.980Z,0.13
2022-09-28T15:14:33.117Z,0.10
2022-09-28T15:17:02.847Z,0.15
2022-09-28T15:20:08.647Z,0.40
2022-09-28T15:22:36.340Z,0.30
2022-09-28T15:25:13.222Z,0.10
2022-09-28T15:27:41.181Z,0.20
2022-09-28T15:30:20.022Z,0.10
2022-09-28T15:32:46.438Z,0.28
2022-09-28T15:35:20.452Z,0.20
2022-09-28T15:37:52.138Z,0.30
2022-09-28T15:40:32.956Z,0.10
2022-09-28T15:42:59.874Z,0.30
2022-09-28T15:45:30.679Z,0.20
2022-09-28T15:48:18.811Z,0.10
2022-09-28T15:51:03.893Z,0.30
2022-09-28T15:53:31.256Z,0.10
2022-09-28T15:56:09.900Z,0.32
2022-09-28T15:58:38.108Z,0.10
2022-09-28T16:01:27.154Z,0.20
2022-09-28T16:03:54.067Z,0.20
2022-09-28T16:06:20.705Z,0.20
2022-09-28T16:08:48.903Z,0.20
2022-09-28T16:11:24.212Z,0.20
2022-09-28T16:14:06.009Z,0.10
2022-09-28T16:16:47.320Z,0.30
2022-09-28T16:19:37.050Z,0.30
2022-09-28T16:22:13.897Z,0.25
2022-09-28T16:24:40.367Z,0.32
2022-09-28T16:27:22.938Z,0.20
2022-09-28T16:30:21.264Z,0.10
2022-09-28T16:32:49.564Z,0.20
2022-09-28T16:35:22.904Z,0.05
2022-09-28T16:38:01.410Z,0.10
2022-09-28T16:40:28.469Z,0.05
2022-09-28T16:42:58.729Z,0.10
2022-09-28T16:45:25.427Z,0.20
2022-09-28T16:47:52.784Z,0.10
2022-09-28T16:50:21.164Z,0.20
2022-09-28T16:53:09.321Z,0.38
2022-09-28T16:55:41.301Z,0.55
2022-09-28T16:58:08.309Z,0.13
2022-09-28T17:00:34.727Z,0.13
2022-09-28T17:03:01.131Z,0.10
2022-09-28T17:05:27.511Z,0.63
2022-09-28T17:08:18.821Z,0.40
2022-09-28T17:11:14.793Z,0.65
2022-09-28T17:13:43.917Z,0.25
2022-09-28T17:16:17.645Z,0.20
2022-09-28T17:18:45.064Z,0.30
2022-09-28T17:21:15.655Z,0.50
2022-09-28T17:23:43.101Z,0.63
2022-09-28T17:26:23.214Z,0.50
2022-09-28T17:28:49.660Z,0.30
2022-09-28T17:31:16.686Z,0.35
2022-09-28T17:33:43.540Z,0.50
2022-09-28T17:36:14.416Z,0.60
2022-09-28T17:38:42.835Z,0.30
2022-09-28T17:41:20.062Z,0.15
2022-09-28T17:43:47.094Z,0.15
2022-09-28T17:46:26.251Z,0.50
2022-09-28T17:48:53.549Z,0.70
2022-09-28T17:51:20.102Z,0.60
2022-09-28T17:53:46.553Z,0.35
2022-09-28T17:56:12.911Z,0.60
2022-09-28T17:58:39.328Z,0.90
2022-09-28T18:01:05.822Z,0.82
2022-09-28T18:03:32.289Z,1.00
2022-09-28T18:06:00.734Z,0.70
2022-09-28T18:08:27.102Z,0.60
2022-09-28T18:10:54.603Z,0.80
2022-09-28T18:13:20.983Z,0.80
2022-09-28T18:15:51.060Z,0.85
2022-09-28T18:18:17.543Z,0.77
2022-09-28T18:20:43.995Z,0.63
2022-09-28T18:23:10.383Z,0.85
2022-09-28T18:25:44.045Z,1.02
2022-09-28T18:28:11.851Z,1.00
2022-09-28T18:30:43.705Z,0.75
2022-09-28T18:33:11.888Z,0.70
2022-09-28T18:35:38.499Z,0.88
2022-09-28T18:38:06.348Z,0.73
2022-09-28T18:40:34.561Z,0.85
2022-09-28T18:43:01.037Z,1.00
2022-09-28T18:45:27.635Z,0.60
2022-09-28T18:47:54.033Z,1.00
2022-09-28T18:50:20.503Z,1.30
2022-09-28T18:52:47.368Z,1.08
2022-09-28T18:55:13.957Z,0.80
2022-09-28T18:57:42.246Z,0.90
2022-09-28T19:00:11.333Z,1.10
2022-09-28T19:02:38.183Z,0.98
2022-09-28T19:05:05.907Z,1.02
2022-09-28T19:07:33.454Z,0.90
2022-09-28T19:09:59.844Z,0.70
2022-09-28T19:12:26.349Z,1.35
2022-09-28T19:14:52.893Z,1.50
2022-09-28T19:17:19.702Z,1.17
2022-09-28T19:19:46.058Z,1.38
2022-09-28T19:22:12.518Z,2.30
2022-09-28T19:24:38.960Z,2.05
2022-09-28T19:27:05.471Z,1.95
2022-09-28T19:29:31.848Z,2.20
2022-09-28T19:31:58.680Z,2.35
2022-09-28T19:34:27.001Z,1.80
2022-09-28T19:36:53.409Z,1.55
2022-09-28T19:39:19.815Z,2.00
2022-09-28T19:41:52.930Z,1.63
2022-09-28T19:44:27.471Z,1.80
2022-09-28T19:49:23.681Z,1.40
2022-09-28T19:52:11.941Z,1.13
2022-09-28T19:54:39.604Z,1.20
2022-09-28T19:57:08.568Z,1.15
2022-09-28T19:59:36.844Z,1.10
2022-09-28T20:02:04.659Z,0.73
2022-09-28T20:04:31.061Z,1.00
2022-09-28T20:06:57.704Z,1.38
2022-09-28T20:09:24.122Z,0.90
2022-09-28T20:11:51.815Z,1.30
2022-09-28T20:14:23.423Z,1.42
2022-09-28T20:16:52.239Z,1.50
2022-09-28T20:19:21.449Z,2.30
2022-09-28T20:21:48.305Z,1.65
2022-09-28T20:24:17.136Z,1.33
2022-09-28T20:26:44.580Z,1.42
2022-09-28T20:29:11.920Z,1.70
2022-09-28T20:31:38.459Z,0.98
2022-09-28T20:34:06.357Z,1.33
2022-09-28T20:36:33.294Z,1.20
2022-09-28T20:39:04.026Z,1.10
2022-09-28T20:41:36.564Z,1.40
2022-09-28T20:44:05.933Z,0.93
2022-09-28T20:46:34.685Z,1.30
2022-09-28T20:49:01.592Z,0.90
2022-09-28T20:51:28.144Z,1.00
2022-09-28T20:53:56.950Z,1.23
2022-09-28T20:56:25.754Z,1.13
2022-09-28T20:58:53.077Z,1.67
2022-09-28T21:01:30.202Z,1.60
2022-09-28T21:03:59.274Z,1.13
2022-09-28T21:06:30.927Z,1.50
2022-09-28T21:08:57.730Z,1.05
2022-09-28T21:11:25.280Z,1.35
2022-09-28T21:13:53.490Z,1.50
2022-09-28T21:16:20.319Z,1.50
2022-09-28T21:18:47.561Z,1.50
2022-09-28T21:21:17.296Z,1.40
2022-09-28T21:23:47.001Z,1.20
2022-09-28T21:26:24.624Z,1.20
2022-09-28T21:29:02.780Z,1.15
2022-09-28T21:31:38.027Z,1.30
2022-09-28T21:34:04.755Z,1.48
2022-09-28T21:36:31.547Z,1.35
2022-09-28T21:38:58.068Z,1.00
2022-09-28T21:41:24.986Z,1.50
2022-09-28T21:43:52.050Z,1.55
2022-09-28T21:46:18.684Z,1.23
2022-09-28T21:48:45.340Z,2.08
2022-09-28T21:51:15.590Z,1.40
2022-09-28T21:53:42.635Z,1.33
2022-09-28T21:56:12.054Z,1.63
2022-09-28T21:58:38.763Z,1.38
2022-09-28T22:01:07.289Z,1.50
2022-09-28T22:03:35.874Z,1.40
2022-09-28T22:06:03.582Z,1.27
2022-09-28T22:08:30.324Z,1.27
2022-09-28T22:11:02.545Z,1.70
2022-09-28T22:13:30.482Z,1.58
2022-09-28T22:16:00.270Z,1.40
2022-09-28T22:18:28.634Z,1.40
2022-09-28T22:21:21.109Z,1.13
2022-09-28T22:23:48.407Z,1.17
2022-09-28T22:26:18.961Z,1.63
2022-09-28T22:28:57.376Z,1.42
2022-09-28T22:31:26.996Z,1.40
2022-09-28T22:33:54.139Z,1.65
2022-09-28T22:36:21.090Z,1.50
2022-09-28T22:38:48.435Z,1.15
2022-09-28T22:41:16.992Z,1.40
2022-09-28T22:43:43.745Z,1.70
2022-09-28T22:46:16.427Z,1.60
2022-09-28T22:48:53.647Z,1.48
2022-09-28T22:51:21.323Z,1.30
2022-09-28T22:53:48.052Z,1.80
2022-09-28T22:56:18.764Z,1.70
2022-09-28T22:58:46.162Z,1.67
2022-09-28T23:01:13.986Z,1.70
2022-09-28T23:03:42.052Z,1.75
2022-09-28T23:06:09.884Z,1.40
2022-09-28T23:08:36.327Z,1.67
2022-09-28T23:11:03.383Z,1.30
2022-09-28T23:13:31.068Z,1.60
2022-09-28T23:16:02.145Z,1.80
2022-09-28T23:18:30.874Z,1.08
2022-09-28T23:20:59.378Z,1.67
2022-09-28T23:23:26.337Z,1.45
2022-09-28T23:25:53.390Z,1.48
2022-09-28T23:28:21.730Z,1.45
2022-09-28T23:30:48.892Z,1.25
2022-09-28T23:33:17.675Z,1.42
2022-09-28T23:35:44.519Z,1.45
2022-09-28T23:38:16.496Z,1.50
2022-09-28T23:40:43.334Z,1.17
2022-09-28T23:43:09.737Z,1.35
2022-09-28T23:45:36.180Z,1.40
2022-09-28T23:48:02.643Z,1.00
2022-09-28T23:50:29.345Z,1.60
2022-09-28T23:52:55.912Z,1.55
2022-09-28T23:55:22.929Z,1.52
2022-09-28T23:57:49.331Z,1.33
